Time;durP1;ratioP1;P1;durP2;ratioP2;P2;SDS_P1;SDS_P2;PMS_P1;PMS_P2;Temp;Humidity;BMP_temperature;BMP_pressure;BME280_temperature;BME280_humidity;BME280_pressure;Samples;Min_cycle;Max_cycle;Signal;HPM_P1;HPM_P2
2022/01/04 00:02:05;;;;;;;30.10;20.45;;;14.40;99.30;;;;;;5015159;28;20021;-66
2022/01/04 00:04:31;;;;;;;27.17;19.27;;;14.40;99.30;;;;;;5033224;28;20360;-65
2022/01/04 00:06:58;;;;;;;26.05;19.25;;;14.40;99.30;;;;;;5033008;28;20022;-65
2022/01/04 00:09:24;;;;;;;30.35;21.42;;;14.30;99.30;;;;;;5032966;28;20079;-68
2022/01/04 00:14:16;;;;;;;30.77;20.30;;;14.30;99.40;;;;;;5032836;28;20428;-68
2022/01/04 00:16:42;;;;;;;27.70;19.98;;;14.30;99.40;;;;;;5032838;28;20072;-65
2022/01/04 00:19:07;;;;;;;29.35;19.77;;;14.30;99.30;;;;;;5032969;28;20136;-70
2022/01/04 00:21:34;;;;;;;32.05;21.90;;;14.20;99.40;;;;;;5033010;28;20459;-68
2022/01/04 00:24:00;;;;;;;28.40;19.92;;;14.20;99.40;;;;;;5032769;28;20095;-72
2022/01/04 00:26:26;;;;;;;29.33;20.38;;;14.20;99.50;;;;;;5032748;28;20101;-65
2022/01/04 00:28:52;;;;;;;27.50;19.80;;;14.20;99.50;;;;;;5032571;28;20026;-68
2022/01/04 00:31:18;;;;;;;26.55;20.13;;;14.20;99.60;;;;;;5032725;28;20067;-66
2022/01/04 00:33:43;;;;;;;31.20;20.77;;;14.20;99.60;;;;;;5032445;28;20471;-70
2022/01/04 00:36:09;;;;;;;28.58;21.67;;;14.10;99.40;;;;;;5032629;28;20021;-71
2022/01/04 00:38:38;;;;;;;32.72;22.35;;;14.10;99.60;;;;;;5032445;28;20034;-70
2022/01/04 00:41:03;;;;;;;25.83;18.90;;;14.10;99.70;;;;;;5032775;28;20021;-73
2022/01/04 00:43:29;;;;;;;31.52;19.65;;;14.00;99.90;;;;;;5014479;28;20041;-70
2022/01/04 00:45:55;;;;;;;27.83;19.83;;;14.00;99.90;;;;;;5015052;28;20014;-73
2022/01/04 00:50:47;;;;;;;26.42;17.80;;;14.00;99.90;;;;;;5032331;28;20128;-70
2022/01/04 00:53:13;;;;;;;22.75;16.48;;;14.00;99.90;;;;;;5032398;28;20031;-73
2022/01/04 00:55:39;;;;;;;26.08;17.45;;;14.00;99.90;;;;;;5032171;28;20021;-71
2022/01/04 00:58:05;;;;;;;24.38;16.63;;;14.00;99.90;;;;;;5032382;28;20124;-73
2022/01/04 01:00:31;;;;;;;24.85;16.15;;;14.00;99.90;;;;;;5032582;28;20378;-73
2022/01/04 01:02:57;;;;;;;24.50;16.58;;;14.00;99.90;;;;;;5032146;28;20108;-70
2022/01/04 01:05:25;;;;;;;25.42;15.95;;;14.00;99.90;;;;;;5032338;28;20033;-70
2022/01/04 01:07:55;;;;;;;25.23;16.15;;;14.00;99.90;;;;;;5031669;28;20403;-73
2022/01/04 01:10:43;;;;;;;26.08;16.77;;;14.00;99.90;;;;;;5032597;28;20025;-70
2022/01/04 01:13:11;;;;;;;25.98;17.02;;;14.00;99.90;;;;;;5014527;28;20116;-69
2022/01/04 01:15:39;;;;;;;21.77;17.42;;;13.90;99.90;;;;;;5014446;28;20041;-69
2022/01/04 01:18:06;;;;;;;23.52;17.63;;;13.90;99.90;;;;;;5032273;28;20025;-73
2022/01/04 01:20:32;;;;;;;22.65;17.67;;;13.90;99.90;;;;;;5032427;28;20029;-71
2022/01/04 01:22:58;;;;;;;21.90;16.95;;;13.90;99.90;;;;;;5032432;28;20037;-71
2022/01/04 01:25:24;;;;;;;21.80;16.67;;;13.90;99.90;;;;;;5032178;28;20033;-71
2022/01/04 01:27:50;;;;;;;24.48;16.05;;;13.90;99.90;;;;;;5032251;28;20022;-71
2022/01/04 01:30:15;;;;;;;20.55;14.80;;;13.90;99.90;;;;;;5032195;28;20411;-73
2022/01/04 01:32:41;;;;;;;21.10;15.70;;;13.90;99.90;;;;;;5032130;28;20467;-71
2022/01/04 01:35:07;;;;;;;21.67;15.73;;;13.90;99.90;;;;;;5032249;28;20096;-71
2022/01/04 01:37:34;;;;;;;24.45;17.35;;;13.90;99.90;;;;;;5014300;28;20044;-71
2022/01/04 01:40:00;;;;;;;27.65;17.10;;;13.90;99.90;;;;;;5032146;28;20014;-68
2022/01/04 01:42:26;;;;;;;23.77;16.50;;;13.90;99.90;;;;;;5032076;28;20131;-69
2022/01/04 01:44:51;;;;;;;20.73;14.95;;;13.90;99.90;;;;;;5032103;28;20029;-69
2022/01/04 01:47:17;;;;;;;19.10;12.93;;;13.90;99.90;;;;;;5031921;28;20022;-69
2022/01/04 01:49:44;;;;;;;16.67;13.73;;;14.00;99.90;;;;;;5031797;28;20117;-73
2022/01/04 01:52:10;;;;;;;22.05;14.02;;;14.00;99.90;;;;;;5031814;28;20083;-73
2022/01/04 01:54:36;;;;;;;19.30;13.40;;;14.00;99.90;;;;;;5013923;28;20029;-70
2022/01/04 01:57:02;;;;;;;17.90;12.57;;;14.00;99.90;;;;;;5034392;28;20109;-72
2022/01/04 01:59:29;;;;;;;19.10;12.60;;;14.00;99.90;;;;;;5035278;28;20382;-73
2022/01/04 02:01:55;;;;;;;16.10;11.68;;;14.00;99.90;;;;;;5035397;28;20540;-69
2022/01/04 02:04:20;;;;;;;15.85;11.45;;;14.10;99.90;;;;;;5035131;28;20120;-69
2022/01/04 02:06:46;;;;;;;18.48;12.25;;;14.10;99.90;;;;;;5017628;28;20022;-66
2022/01/04 02:09:12;;;;;;;17.42;11.10;;;14.10;99.90;;;;;;5034933;28;20340;-69
2022/01/04 02:11:39;;;;;;;19.27;12.50;;;14.10;99.90;;;;;;5035122;28;20465;-64
2022/01/04 02:14:05;;;;;;;16.45;11.23;;;14.10;99.90;;;;;;5035299;28;20432;-65
2022/01/04 02:16:31;;;;;;;14.63;10.25;;;14.10;99.90;;;;;;5035183;28;20030;-65
2022/01/04 02:19:06;;;;;;;16.05;10.80;;;14.10;99.90;;;;;;5034660;28;20057;-66
2022/01/04 02:21:34;;;;;;;19.75;12.48;;;14.10;99.80;;;;;;5035043;28;20021;-65
2022/01/04 02:24:00;;;;;;;18.08;11.80;;;14.10;99.80;;;;;;5034904;28;20038;-64
2022/01/04 02:26:29;;;;;;;16.75;10.82;;;14.10;99.80;;;;;;5017247;28;20430;-65
2022/01/04 02:28:55;;;;;;;17.90;10.65;;;14.10;99.90;;;;;;5034538;28;20036;-66
2022/01/04 02:31:20;;;;;;;16.08;10.63;;;14.10;99.70;;;;;;5034849;28;20026;-64
2022/01/04 02:33:46;;;;;;;17.50;10.48;;;14.10;99.70;;;;;;5034679;28;20467;-65
2022/01/04 02:36:12;;;;;;;21.13;10.93;;;14.20;99.80;;;;;;5034883;28;20045;-65
2022/01/04 02:38:38;;;;;;;15.68;10.00;;;14.20;99.80;;;;;;5034480;28;20101;-67
2022/01/04 02:41:04;;;;;;;17.42;10.80;;;14.20;99.70;;;;;;5017072;28;20030;-65
2022/01/04 02:43:30;;;;;;;15.27;9.95;;;14.10;99.70;;;;;;5034748;28;20037;-70
2022/01/04 02:45:56;;;;;;;13.57;10.57;;;14.20;99.70;;;;;;5034447;28;20548;-67
2022/01/04 02:48:22;;;;;;;16.58;10.43;;;14.20;99.70;;;;;;5034336;28;20426;-68
2022/01/04 02:50:48;;;;;;;14.57;10.25;;;14.20;99.80;;;;;;5034150;28;20060;-70
2022/01/04 02:53:14;;;;;;;13.68;10.23;;;14.20;99.80;;;;;;5034439;28;20022;-71
2022/01/04 02:55:40;;;;;;;14.60;10.93;;;14.10;99.70;;;;;;5034740;28;20028;-68
2022/01/04 02:58:06;;;;;;;13.85;10.10;;;14.10;99.60;;;;;;5034237;28;20101;-65
2022/01/04 03:00:32;;;;;;;15.13;10.27;;;14.10;99.70;;;;;;5034026;28;20049;-66
2022/01/04 03:02:58;;;;;;;14.85;10.05;;;14.20;99.70;;;;;;5034169;28;20053;-66
2022/01/04 03:05:23;;;;;;;16.15;10.10;;;14.20;99.70;;;;;;5034144;28;20100;-65
2022/01/04 03:07:49;;;;;;;14.60;10.43;;;14.20;99.70;;;;;;5032986;28;20029;-65
2022/01/04 03:10:15;;;;;;;17.17;11.20;;;14.20;99.70;;;;;;5033974;28;20099;-64
2022/01/04 03:12:43;;;;;;;12.75;10.02;;;14.20;99.60;;;;;;5034361;28;20052;-63
2022/01/04 03:15:10;;;;;;;16.15;10.13;;;14.20;99.60;;;;;;5034380;28;20036;-65
2022/01/04 03:17:36;;;;;;;14.75;10.38;;;14.20;99.50;;;;;;5034031;28;20048;-64
2022/01/04 03:20:03;;;;;;;16.70;10.13;;;14.20;99.40;;;;;;5034165;28;20491;-65
2022/01/04 03:22:29;;;;;;;15.00;9.90;;;14.20;99.40;;;;;;5034142;28;20108;-65
2022/01/04 03:24:54;;;;;;;15.07;9.68;;;14.20;99.50;;;;;;5034227;28;20033;-64
2022/01/04 03:27:20;;;;;;;15.73;10.35;;;14.20;99.40;;;;;;5033992;28;20028;-65
2022/01/04 03:29:46;;;;;;;13.40;9.02;;;14.20;99.40;;;;;;5033748;28;20459;-65
2022/01/04 03:32:11;;;;;;;14.50;9.77;;;14.20;99.30;;;;;;5033875;28;20047;-65
2022/01/04 03:34:37;;;;;;;15.15;9.80;;;14.20;99.30;;;;;;5033625;28;20135;-66
2022/01/04 03:37:03;;;;;;;14.35;9.23;;;14.20;99.30;;;;;;5033576;28;20148;-65
2022/01/04 03:39:29;;;;;;;15.93;9.35;;;14.20;99.30;;;;;;5033339;28;20018;-68
2022/01/04 03:41:55;;;;;;;14.77;10.07;;;14.20;99.30;;;;;;5033509;28;20044;-64
2022/01/04 03:44:21;;;;;;;15.13;9.68;;;14.20;99.20;;;;;;5033280;28;20038;-67
2022/01/04 03:46:49;;;;;;;14.27;10.98;;;14.20;99.10;;;;;;5033445;28;20071;-65
2022/01/04 03:49:15;;;;;;;16.05;9.50;;;14.20;99.30;;;;;;5033300;28;20026;-66
2022/01/04 03:51:41;;;;;;;14.13;10.63;;;14.20;99.10;;;;;;5033036;28;20068;-66
2022/01/04 03:54:07;;;;;;;15.88;10.95;;;14.20;99.00;;;;;;5033369;28;20057;-66
2022/01/04 03:56:32;;;;;;;15.43;10.90;;;14.20;99.10;;;;;;5033387;28;20013;-70
2022/01/04 03:58:59;;;;;;;15.88;11.75;;;14.20;99.10;;;;;;5033141;28;20048;-65
2022/01/04 04:01:25;;;;;;;15.90;12.18;;;14.10;99.00;;;;;;5015921;28;20021;-64
2022/01/04 04:03:51;;;;;;;22.17;13.75;;;14.10;99.10;;;;;;5033056;28;20033;-66
2022/01/04 04:06:18;;;;;;;19.45;13.80;;;14.10;99.20;;;;;;5033031;28;20064;-67
2022/01/04 04:08:43;;;;;;;18.77;13.10;;;14.10;99.20;;;;;;5032864;28;20104;-65
2022/01/04 04:11:10;;;;;;;20.80;14.10;;;14.10;99.20;;;;;;5032979;28;20053;-65
2022/01/04 04:13:35;;;;;;;19.23;13.73;;;14.10;99.20;;;;;;5032716;28;20026;-69
2022/01/04 04:16:01;;;;;;;22.25;14.18;;;14.10;99.30;;;;;;5033084;28;20071;-70
2022/01/04 04:18:27;;;;;;;19.02;14.05;;;14.10;99.40;;;;;;5033013;28;20467;-73
2022/01/04 04:20:52;;;;;;;20.52;13.48;;;14.10;99.40;;;;;;5015033;28;20103;-72
2022/01/04 04:23:18;;;;;;;18.52;13.55;;;14.10;99.40;;;;;;5033115;28;20044;-72
2022/01/04 04:25:44;;;;;;;17.10;11.88;;;14.10;99.50;;;;;;5033161;28;20479;-74
2022/01/04 04:28:10;;;;;;;18.13;12.05;;;14.10;99.50;;;;;;5032764;28;20021;-74
2022/01/04 04:30:36;;;;;;;16.98;11.98;;;14.10;99.50;;;;;;5033114;28;20045;-73
2022/01/04 04:33:02;;;;;;;17.40;11.18;;;14.10;99.50;;;;;;5032847;28;20026;-67
2022/01/04 04:35:29;;;;;;;19.77;11.15;;;14.10;99.50;;;;;;5032609;28;20095;-73
2022/01/04 04:37:57;;;;;;;18.45;10.82;;;14.10;99.50;;;;;;5032771;28;20009;-71
2022/01/04 04:40:22;;;;;;;12.30;9.77;;;14.10;99.50;;;;;;5033235;28;20100;-73
2022/01/04 04:42:48;;;;;;;15.25;10.80;;;14.10;99.60;;;;;;5032764;28;20030;-74
2022/01/04 04:45:14;;;;;;;16.20;10.52;;;14.10;99.60;;;;;;5032968;28;20044;-73
2022/01/04 04:47:40;;;;;;;13.82;9.50;;;14.10;99.60;;;;;;5032826;28;20022;-75
2022/01/04 04:50:06;;;;;;;13.68;8.23;;;14.20;99.60;;;;;;5032523;28;20472;-71
2022/01/04 04:52:32;;;;;;;14.30;8.70;;;14.10;99.50;;;;;;5032900;28;20479;-68
2022/01/04 04:54:57;;;;;;;11.90;7.22;;;14.10;99.50;;;;;;5032507;28;20049;-73
2022/01/04 04:57:23;;;;;;;13.75;7.78;;;14.20;99.50;;;;;;5032365;28;20067;-64
2022/01/04 04:59:49;;;;;;;10.90;7.43;;;14.20;99.50;;;;;;5032284;28;20471;-69
2022/01/04 05:02:15;;;;;;;14.18;8.43;;;14.20;99.50;;;;;;5032784;28;20383;-70
2022/01/04 05:04:40;;;;;;;10.95;7.40;;;14.20;99.60;;;;;;5032785;28;20460;-73
2022/01/04 05:07:06;;;;;;;12.88;8.27;;;14.20;99.50;;;;;;5032584;28;20053;-75
2022/01/04 05:09:32;;;;;;;14.52;8.48;;;14.20;99.60;;;;;;5032346;28;20058;-65
2022/01/04 05:11:57;;;;;;;10.90;7.97;;;14.20;99.40;;;;;;5032422;28;20643;-72
2022/01/04 05:14:23;;;;;;;12.30;8.57;;;14.20;99.50;;;;;;5032713;28;20025;-70
2022/01/04 05:16:49;;;;;;;10.07;7.28;;;14.20;99.40;;;;;;5032579;28;20033;-72
2022/01/04 05:19:15;;;;;;;13.82;7.20;;;14.20;99.40;;;;;;5032517;28;20036;-72
2022/01/04 05:21:41;;;;;;;11.75;8.10;;;14.30;99.40;;;;;;5032422;28;20022;-64
2022/01/04 05:24:06;;;;;;;10.38;7.53;;;14.30;99.30;;;;;;5032154;28;20037;-65
2022/01/04 05:26:35;;;;;;;15.88;7.28;;;14.30;99.30;;;;;;5032038;28;20088;-69
2022/01/04 05:29:02;;;;;;;13.95;7.22;;;14.30;99.30;;;;;;5032219;28;20547;-66
2022/01/04 05:31:28;;;;;;;11.10;7.47;;;14.30;99.10;;;;;;5034144;28;20029;-75
2022/01/04 05:33:54;;;;;;;13.27;8.75;;;14.30;99.20;;;;;;5036152;28;20128;-69
2022/01/04 05:36:20;;;;;;;15.27;9.13;;;14.30;99.20;;;;;;5035934;28;20022;-73
2022/01/04 05:38:47;;;;;;;12.90;8.25;;;14.30;99.20;;;;;;5036104;28;20029;-75
2022/01/04 05:41:13;;;;;;;17.58;8.45;;;14.30;99.30;;;;;;5036083;28;20017;-71
2022/01/04 05:43:39;;;;;;;16.67;9.65;;;14.20;99.30;;;;;;5036032;28;20041;-73
2022/01/04 05:46:05;;;;;;;18.52;8.35;;;14.30;99.40;;;;;;5018072;28;20458;-71
2022/01/04 05:48:30;;;;;;;11.98;8.13;;;14.30;99.40;;;;;;5035721;28;20021;-71
2022/01/04 05:50:56;;;;;;;16.52;8.25;;;14.20;99.50;;;;;;5035676;28;20104;-72
2022/01/04 05:53:22;;;;;;;13.73;7.82;;;14.20;99.50;;;;;;5036591;28;20025;-69
2022/01/04 05:55:47;;;;;;;19.27;8.35;;;14.20;99.60;;;;;;5036295;28;20041;-72
2022/01/04 05:58:13;;;;;;;13.18;8.48;;;14.30;99.50;;;;;;5035731;28;20544;-71
2022/01/04 06:00:39;;;;;;;14.05;8.20;;;14.20;99.50;;;;;;5035600;28;20422;-74
2022/01/04 06:03:04;;;;;;;15.80;9.85;;;14.30;99.60;;;;;;5035477;28;20026;-73
2022/01/04 06:05:31;;;;;;;12.65;8.70;;;14.30;99.40;;;;;;5035247;28;20466;-73
2022/01/04 06:07:57;;;;;;;16.40;9.30;;;14.30;99.30;;;;;;5035443;28;20026;-73
2022/01/04 06:10:23;;;;;;;17.80;10.40;;;14.30;99.40;;;;;;5035483;28;20540;-72
2022/01/04 06:15:15;;;;;;;17.58;10.65;;;14.20;99.30;;;;;;5035640;28;20463;-70
2022/01/04 06:17:50;;;;;;;13.75;10.20;;;14.20;99.40;;;;;;5035055;28;20021;-71
2022/01/04 06:20:21;;;;;;;20.20;10.85;;;14.20;99.40;;;;;;5035126;28;20429;-75
2022/01/04 06:22:48;;;;;;;14.40;9.80;;;14.20;99.50;;;;;;5035016;28;20499;-72
2022/01/04 06:25:16;;;;;;;15.15;11.02;;;14.20;99.50;;;;;;5035417;28;20387;-72
2022/01/04 06:27:44;;;;;;;17.10;10.65;;;14.10;99.40;;;;;;5035284;28;20025;-73
2022/01/04 06:30:13;;;;;;;14.55;10.80;;;14.20;99.50;;;;;;5035048;28;20021;-75
2022/01/04 06:32:41;;;;;;;16.15;10.68;;;14.20;99.50;;;;;;5017393;28;20519;-75
2022/01/04 06:35:07;;;;;;;15.73;10.75;;;14.20;99.50;;;;;;5035389;28;20013;-74
2022/01/04 06:37:32;;;;;;;17.55;10.48;;;14.20;99.60;;;;;;5035406;28;20037;-74
2022/01/04 06:39:58;;;;;;;16.60;10.35;;;14.20;99.50;;;;;;5035327;28;20017;-75
2022/01/04 06:42:24;;;;;;;15.52;10.07;;;14.20;99.50;;;;;;5036162;28;20025;-73
2022/01/04 06:44:49;;;;;;;16.60;9.90;;;14.20;99.50;;;;;;5035387;28;20398;-74
2022/01/04 06:47:15;;;;;;;15.43;9.80;;;14.20;99.40;;;;;;5038065;28;20033;-65
2022/01/04 06:49:41;;;;;;;22.00;11.48;;;14.20;99.30;;;;;;5037726;28;20056;-65
2022/01/04 06:52:08;;;;;;;18.73;10.93;;;14.30;99.30;;;;;;5035168;28;20025;-64
2022/01/04 06:54:34;;;;;;;19.40;12.93;;;14.30;99.20;;;;;;5034150;28;20025;-65
2022/01/04 06:57:00;;;;;;;23.00;13.48;;;14.30;99.20;;;;;;5033900;28;20486;-65
2022/01/04 06:59:26;;;;;;;19.92;11.60;;;14.30;99.20;;;;;;5016126;28;20087;-67
2022/01/04 07:01:52;;;;;;;22.50;12.40;;;14.30;99.20;;;;;;5034007;28;20080;-66
2022/01/04 07:04:17;;;;;;;15.63;10.80;;;14.30;99.10;;;;;;5033842;28;20398;-65
2022/01/04 07:06:43;;;;;;;17.35;11.55;;;14.30;99.20;;;;;;5034221;28;20029;-70
2022/01/04 07:09:09;;;;;;;16.50;10.50;;;14.30;99.20;;;;;;5015936;28;20026;-69
2022/01/04 07:11:36;;;;;;;18.23;12.07;;;14.40;99.10;;;;;;5033955;28;20029;-65
2022/01/04 07:14:02;;;;;;;19.88;12.07;;;14.40;99.00;;;;;;5033870;28;20020;-66
2022/01/04 07:16:28;;;;;;;18.98;13.18;;;14.40;99.10;;;;;;5016022;28;20037;-66
2022/01/04 07:18:54;;;;;;;15.55;11.27;;;14.40;99.10;;;;;;5033609;28;20043;-67
2022/01/04 07:21:21;;;;;;;14.85;10.82;;;14.40;99.00;;;;;;5033279;28;20088;-65
2022/01/04 07:23:48;;;;;;;18.45;12.25;;;14.40;98.90;;;;;;5033162;28;20099;-67
2022/01/04 07:26:15;;;;;;;20.40;11.38;;;14.40;99.00;;;;;;5033848;28;20025;-65
2022/01/04 07:28:43;;;;;;;17.13;11.40;;;14.40;98.90;;;;;;5033301;28;20424;-69
2022/01/04 07:31:09;;;;;;;17.90;11.20;;;14.40;98.80;;;;;;5033524;28;20029;-66
2022/01/04 07:33:35;;;;;;;16.42;11.10;;;14.40;98.90;;;;;;5033241;28;20029;-65
2022/01/04 07:36:02;;;;;;;16.35;10.27;;;14.50;98.90;;;;;;5033106;28;20025;-68
2022/01/04 07:38:28;;;;;;;15.68;11.10;;;14.50;99.10;;;;;;5033144;28;20063;-70
2022/01/04 07:40:54;;;;;;;15.90;11.25;;;14.50;98.70;;;;;;5033357;28;20033;-66
2022/01/04 07:43:20;;;;;;;14.02;10.23;;;14.50;98.60;;;;;;5033261;28;20084;-67
2022/01/04 07:45:46;;;;;;;16.95;9.95;;;14.50;98.60;;;;;;5033050;28;20029;-67
2022/01/04 07:48:11;;;;;;;17.17;9.88;;;14.50;98.60;;;;;;5032738;28;20022;-65
2022/01/04 07:50:39;;;;;;;21.13;10.93;;;14.50;98.40;;;;;;5032793;28;20433;-67
2022/01/04 07:53:06;;;;;;;18.52;11.18;;;14.50;98.40;;;;;;5014851;28;20018;-66
2022/01/04 07:55:33;;;;;;;16.48;9.45;;;14.50;98.40;;;;;;5033162;28;20053;-67
2022/01/04 07:57:59;;;;;;;14.43;9.98;;;14.50;98.40;;;;;;5032752;28;20048;-64
2022/01/04 08:00:25;;;;;;;14.45;9.02;;;14.50;98.30;;;;;;5032862;28;20053;-66
2022/01/04 08:02:52;;;;;;;14.82;8.98;;;14.60;98.30;;;;;;5032896;28;20025;-68
2022/01/04 08:05:18;;;;;;;20.15;10.05;;;14.50;98.40;;;;;;5032481;28;20120;-69
2022/01/04 08:07:44;;;;;;;18.70;9.95;;;14.60;98.30;;;;;;5032425;28;20060;-67
2022/01/04 08:10:11;;;;;;;19.10;9.48;;;14.60;98.40;;;;;;5032569;28;20036;-67
2022/01/04 08:12:37;;;;;;;13.52;9.00;;;14.60;98.30;;;;;;5032591;28;20017;-67
2022/01/04 08:15:08;;;;;;;17.40;9.75;;;14.60;98.30;;;;;;5032755;28;20036;-66
2022/01/04 08:17:34;;;;;;;13.63;8.55;;;14.70;98.30;;;;;;5032459;28;20017;-65
2022/01/04 08:20:01;;;;;;;16.67;9.05;;;14.60;98.00;;;;;;5032443;28;20033;-64
2022/01/04 08:22:32;;;;;;;18.58;9.98;;;14.70;98.10;;;;;;5032171;28;20506;-66
2022/01/04 08:25:01;;;;;;;15.43;9.50;;;14.70;98.10;;;;;;5015588;28;20574;-65
2022/01/04 08:27:27;;;;;;;20.40;9.75;;;14.70;97.90;;;;;;5014673;28;20076;-65
2022/01/04 08:29:53;;;;;;;16.92;9.57;;;14.70;97.90;;;;;;5032880;28;20033;-71
2022/01/04 08:32:19;;;;;;;21.13;10.25;;;14.80;97.90;;;;;;5032699;28;20026;-66
2022/01/04 08:34:45;;;;;;;16.50;10.95;;;14.80;97.90;;;;;;5032440;28;20391;-69
2022/01/04 08:37:10;;;;;;;18.17;10.45;;;14.80;97.70;;;;;;5014108;28;20056;-68
2022/01/04 08:39:37;;;;;;;14.18;9.80;;;14.80;97.60;;;;;;5032019;28;20025;-68
2022/01/04 08:42:03;;;;;;;18.02;9.35;;;14.90;97.90;;;;;;5031703;28;20033;-65
2022/01/04 08:44:30;;;;;;;18.38;9.60;;;14.90;97.60;;;;;;5031433;28;20041;-67
2022/01/04 08:46:56;;;;;;;14.77;8.45;;;14.90;97.50;;;;;;5031758;28;20108;-68
2022/01/04 08:49:23;;;;;;;21.80;10.05;;;14.90;97.40;;;;;;5031142;28;20113;-66
2022/01/04 08:51:49;;;;;;;18.08;9.57;;;15.00;97.50;;;;;;5031804;28;20037;-69
2022/01/04 08:54:15;;;;;;;17.92;9.10;;;15.00;97.40;;;;;;5031824;28;20040;-67
2022/01/04 08:56:41;;;;;;;15.18;8.85;;;15.00;97.30;;;;;;5032068;28;20029;-65
2022/01/04 08:59:08;;;;;;;14.07;8.23;;;15.00;97.20;;;;;;5013765;28;20037;-66
2022/01/04 09:01:35;;;;;;;14.07;8.05;;;15.10;97.10;;;;;;5031464;28;20041;-76
2022/01/04 09:04:01;;;;;;;12.10;7.68;;;15.10;96.90;;;;;;5014037;28;20402;-66
2022/01/04 09:06:28;;;;;;;13.18;7.88;;;15.10;96.90;;;;;;5035130;28;20041;-65
2022/01/04 09:08:56;;;;;;;14.50;7.93;;;15.10;96.80;;;;;;5035718;28;20061;-66
2022/01/04 09:11:23;;;;;;;14.13;8.07;;;15.10;96.70;;;;;;5035660;28;20414;-65
2022/01/04 09:13:50;;;;;;;12.63;8.20;;;15.20;96.80;;;;;;5035385;28;20052;-66
2022/01/04 09:18:43;;;;;;;14.40;7.65;;;15.30;96.70;;;;;;5035360;28;20060;-65
2022/01/04 09:21:14;;;;;;;12.25;7.93;;;15.30;96.60;;;;;;5035008;28;20018;-68
2022/01/04 09:23:41;;;;;;;20.30;7.72;;;15.30;96.60;;;;;;5017165;28;20039;-68
2022/01/04 09:26:08;;;;;;;15.15;8.40;;;15.40;96.60;;;;;;5035514;28;20562;-68
2022/01/04 09:28:34;;;;;;;15.02;7.28;;;15.40;96.40;;;;;;5034820;28;20099;-68
2022/01/04 09:30:59;;;;;;;15.50;8.02;;;15.50;96.40;;;;;;5035363;28;20045;-66
2022/01/04 09:33:25;;;;;;;10.40;6.97;;;15.60;96.30;;;;;;5035230;28;20041;-67
2022/01/04 09:35:51;;;;;;;14.38;6.68;;;15.70;96.20;;;;;;5017185;28;20072;-67
2022/01/04 09:38:18;;;;;;;12.77;6.82;;;15.70;96.20;;;;;;5017702;28;20037;-67
2022/01/04 09:40:45;;;;;;;11.90;6.30;;;15.70;96.20;;;;;;5034888;28;20093;-65
2022/01/04 09:43:11;;;;;;;14.55;7.43;;;15.70;96.10;;;;;;5034475;28;20034;-68
2022/01/04 09:45:37;;;;;;;14.60;8.00;;;15.70;96.10;;;;;;5035144;28;20026;-66
2022/01/04 09:48:04;;;;;;;10.57;6.65;;;15.80;96.10;;;;;;5034776;28;20040;-65
2022/01/04 09:50:34;;;;;;;9.43;6.13;;;15.80;95.90;;;;;;5034612;28;20187;-67
2022/01/04 09:53:01;;;;;;;11.18;6.15;;;15.90;95.90;;;;;;5034177;28;20022;-65
2022/01/04 09:55:27;;;;;;;11.75;6.20;;;15.90;95.80;;;;;;5034873;28;20122;-75
2022/01/04 09:57:53;;;;;;;14.30;6.43;;;15.90;95.60;;;;;;5035386;28;20021;-70
2022/01/04 10:00:19;;;;;;;11.27;5.93;;;16.00;95.60;;;;;;5037811;28;20030;-74
2022/01/04 10:02:52;;;;;;;12.50;6.65;;;16.00;95.40;;;;;;5035229;28;20017;-69
2022/01/04 10:05:29;;;;;;;11.00;5.78;;;16.10;95.30;;;;;;5034925;28;20038;-68
2022/01/04 10:08:07;;;;;;;11.82;6.13;;;16.10;95.20;;;;;;5034735;28;20041;-67
2022/01/04 10:10:34;;;;;;;9.07;5.35;;;16.20;95.00;;;;;;5034834;28;20036;-70
2022/01/04 10:13:02;;;;;;;8.27;5.30;;;16.20;94.80;;;;;;5034962;28;20135;-67
2022/01/04 10:15:42;;;;;;;11.43;5.70;;;16.30;94.70;;;;;;5034611;28;20084;-69
2022/01/04 10:18:13;;;;;;;8.98;5.28;;;16.30;94.50;;;;;;5033746;28;20029;-65
2022/01/04 10:20:40;;;;;;;14.13;6.38;;;16.40;94.40;;;;;;5034469;28;20028;-68
2022/01/04 10:23:15;;;;;;;11.70;5.50;;;16.40;94.10;;;;;;5034446;28;20079;-65
2022/01/04 10:25:41;;;;;;;10.68;5.25;;;16.40;94.10;;;;;;5034486;28;20026;-69
2022/01/04 10:28:09;;;;;;;13.30;5.82;;;16.40;93.90;;;;;;5034133;28;20095;-66
2022/01/04 10:30:38;;;;;;;9.05;5.30;;;16.50;93.70;;;;;;5034259;28;20033;-66
2022/01/04 10:33:06;;;;;;;8.40;5.28;;;16.50;93.50;;;;;;5034338;28;20068;-65
2022/01/04 10:35:43;;;;;;;7.97;5.07;;;16.60;93.30;;;;;;5034771;28;20022;-69
2022/01/04 10:38:17;;;;;;;9.20;5.00;;;16.70;92.90;;;;;;5034593;28;20040;-70
2022/01/04 10:40:46;;;;;;;8.82;4.35;;;16.70;92.40;;;;;;5034025;28;20029;-68
2022/01/04 10:43:17;;;;;;;9.85;4.90;;;16.70;92.30;;;;;;5033870;28;20037;-70
2022/01/04 10:45:44;;;;;;;8.75;4.18;;;16.80;92.10;;;;;;5033834;28;20451;-69
2022/01/04 10:48:25;;;;;;;8.90;5.13;;;16.80;91.80;;;;;;5033705;28;20471;-67
2022/01/04 10:50:53;;;;;;;14.43;8.07;;;16.80;91.60;;;;;;5033462;28;20383;-66
2022/01/04 10:53:28;;;;;;;19.27;8.20;;;16.80;91.60;;;;;;5034089;28;20034;-65
2022/01/04 10:55:56;;;;;;;10.32;6.50;;;16.70;91.50;;;;;;5015779;28;20026;-66
2022/01/04 10:58:29;;;;;;;8.82;5.53;;;16.70;91.20;;;;;;5033806;28;20471;-68
2022/01/04 11:01:00;;;;;;;10.80;5.60;;;16.70;91.00;;;;;;5033755;28;20052;-66
2022/01/04 11:03:30;;;;;;;13.55;5.53;;;16.70;90.70;;;;;;5015659;28;20080;-68
2022/01/04 11:06:07;;;;;;;8.27;5.47;;;16.70;90.60;;;;;;5033401;28;20356;-66
2022/01/04 11:08:33;;;;;;;14.23;8.40;;;16.80;90.50;;;;;;5033340;28;20037;-68
2022/01/04 11:10:59;;;;;;;14.98;9.25;;;16.80;90.60;;;;;;5033525;28;20525;-69
2022/01/04 11:13:27;;;;;;;13.23;7.50;;;16.70;90.50;;;;;;5015810;28;20114;-69
2022/01/04 11:15:53;;;;;;;14.02;8.25;;;16.70;90.60;;;;;;5033977;28;20101;-66
2022/01/04 11:18:19;;;;;;;14.80;7.45;;;16.80;90.40;;;;;;5033428;28;20111;-69
2022/01/04 11:20:46;;;;;;;13.32;5.93;;;16.70;90.30;;;;;;5033732;28;20049;-68
2022/01/04 11:23:13;;;;;;;18.42;6.75;;;16.70;90.00;;;;;;5033455;28;20081;-66
2022/01/04 11:25:45;;;;;;;10.77;6.38;;;16.80;90.10;;;;;;5033607;28;20033;-66
2022/01/04 11:28:14;;;;;;;10.32;5.88;;;16.80;90.30;;;;;;5014583;28;20021;-66
2022/01/04 11:30:53;;;;;;;9.75;5.32;;;16.90;89.70;;;;;;5033396;28;20033;-68
2022/01/04 11:33:21;;;;;;;9.27;5.25;;;16.90;89.50;;;;;;5016154;28;20033;-68
2022/01/04 11:35:49;;;;;;;10.90;4.75;;;17.00;89.30;;;;;;5033550;28;20104;-66
2022/01/04 11:38:30;;;;;;;12.70;4.90;;;17.00;88.10;;;;;;5033377;28;20021;-68
2022/01/04 11:40:56;;;;;;;9.20;4.47;;;17.10;88.00;;;;;;5033246;28;20018;-67
2022/01/04 11:43:31;;;;;;;7.57;4.25;;;17.20;87.00;;;;;;5033067;28;20502;-67
2022/01/04 11:45:59;;;;;;;10.45;4.72;;;17.30;87.10;;;;;;5033163;28;20416;-65
2022/01/04 11:48:49;;;;;;;7.95;4.28;;;17.30;86.50;;;;;;5025960;23;20131;-67
2022/01/04 11:51:44;;;;;;;6.68;4.65;;;17.30;85.90;;;;;;5013780;28;20067;-68
2022/01/04 11:54:21;;;;;;;7.85;4.20;;;17.40;85.80;;;;;;5005273;28;20116;-73
2022/01/04 11:57:05;;;;;;;7.55;4.47;;;17.40;85.40;;;;;;5013789;28;20018;-75
2022/01/04 11:59:32;;;;;;;;;;;17.40;85.00;;;;;;5014134;28;20033;-70
2022/01/04 12:02:27;;;;;;;9.32;4.72;;;17.50;83.60;;;;;;5070379;28;20413;-69
2022/01/04 12:05:21;;;;;;;9.95;5.18;;;17.70;84.80;;;;;;5070435;28;20021;-72
2022/01/04 12:07:50;;;;;;;7.72;4.25;;;17.80;84.10;;;;;;5068825;28;20040;-68
2022/01/04 12:10:25;;;;;;;7.53;4.30;;;17.90;83.30;;;;;;5053946;28;20068;-71
2022/01/04 12:13:09;;;;;;;9.27;4.50;;;18.00;82.80;;;;;;5076046;28;20478;-72
2022/01/04 12:15:35;;;;;;;8.52;4.43;;;18.20;82.20;;;;;;5073067;28;20394;-67
2022/01/04 12:18:09;;;;;;;8.32;4.28;;;18.30;80.50;;;;;;5069934;28;20131;-73
2022/01/04 12:20:41;;;;;;;9.55;4.53;;;18.50;80.70;;;;;;5070043;28;20040;-76
2022/01/04 12:23:25;;;;;;;9.25;5.38;;;18.60;80.00;;;;;;5070491;28;20334;-72
2022/01/04 12:26:08;;;;;;;7.78;5.00;;;18.70;77.90;;;;;;5069858;28;20025;-66
2022/01/04 12:28:40;;;;;;;8.15;5.00;;;18.80;78.20;;;;;;5070798;28;20077;-70
2022/01/04 12:31:18;;;;;;;9.85;5.00;;;18.80;77.30;;;;;;5071270;28;20175;-68
2022/01/04 12:34:04;;;;;;;8.20;4.63;;;18.80;78.00;;;;;;5070544;28;20032;-76
2022/01/04 12:36:41;;;;;;;8.63;4.82;;;18.80;77.50;;;;;;5070735;28;20017;-71
2022/01/04 12:39:19;;;;;;;11.60;4.97;;;18.80;77.10;;;;;;5070642;28;20037;-71
2022/01/04 12:41:47;;;;;;;9.15;4.43;;;18.90;76.60;;;;;;5070367;28;20033;-69
2022/01/04 12:44:24;;;;;;;9.70;4.13;;;18.90;75.00;;;;;;5071862;28;20028;-74
2022/01/04 12:46:54;;;;;;;9.07;4.32;;;18.80;74.20;;;;;;5070876;28;20538;-76